Time;durP1;ratioP1;P1;durP2;ratioP2;P2;SDS_P1;SDS_P2;PMS_P1;PMS_P2;Temp;Humidity;BMP_temperature;BMP_pressure;BME280_temperature;BME280_humidity;BME280_pressure;Samples;Min_cycle;Max_cycle;Signal;HPM_P1;HPM_P2
2022/01/26 00:07:48;;;;;;;79.30;36.33;;;3.40;99.90;;;;;;4984663;28;20136;-77
2022/01/26 00:10:13;;;;;;;77.10;36.20;;;3.30;99.90;;;;;;4997106;28;20125;-77
2022/01/26 00:12:39;;;;;;;80.45;35.92;;;3.40;99.90;;;;;;4984108;28;20046;-77
2022/01/26 00:15:05;;;;;;;79.55;37.88;;;3.30;99.90;;;;;;4981898;28;20209;-76
2022/01/26 00:17:31;;;;;;;82.90;37.13;;;3.30;99.90;;;;;;4985183;28;20037;-77
2022/01/26 00:20:06;;;;;;;82.13;36.97;;;3.30;99.90;;;;;;4988344;28;20044;-77
2022/01/26 00:22:43;;;;;;;86.38;38.35;;;3.30;99.90;;;;;;4982112;28;20042;-77
2022/01/26 00:41:06;;;;;;;88.22;39.03;;;3.20;99.90;;;;;;4998483;28;20050;-77
2022/01/26 00:43:33;;;;;;;87.90;38.33;;;3.20;99.90;;;;;;4995481;28;20650;-77
2022/01/26 00:46:01;;;;;;;78.85;37.85;;;3.20;99.90;;;;;;4997923;28;20120;-76
2022/01/26 00:48:30;;;;;;;84.68;38.95;;;3.20;99.90;;;;;;5003173;28;20042;-77
2022/01/26 00:50:59;;;;;;;86.65;39.13;;;3.10;99.90;;;;;;4997710;28;20066;-77
2022/01/26 00:53:32;;;;;;;84.85;38.75;;;3.10;99.90;;;;;;4995659;28;20456;-77
2022/01/26 00:55:58;;;;;;;89.05;39.88;;;3.10;99.90;;;;;;4996859;28;20050;-77
2022/01/26 00:58:23;;;;;;;82.55;37.55;;;3.10;99.90;;;;;;4979616;28;20084;-77
2022/01/26 01:00:49;;;;;;;87.78;39.10;;;3.20;99.90;;;;;;4994127;28;20101;-77
2022/01/26 01:03:15;;;;;;;87.45;38.42;;;3.20;99.90;;;;;;4999403;28;20037;-77
2022/01/26 01:05:51;;;;;;;85.43;39.85;;;3.10;99.90;;;;;;5012722;28;20053;-77
2022/01/26 01:08:20;;;;;;;84.40;39.17;;;3.10;99.90;;;;;;4980635;28;20045;-77
2022/01/26 01:10:47;;;;;;;80.70;37.60;;;3.10;99.90;;;;;;5001812;28;20042;-77
2022/01/26 01:13:15;;;;;;;78.80;38.35;;;3.10;99.90;;;;;;4997842;28;20045;-77
2022/01/26 01:15:42;;;;;;;78.30;37.80;;;3.10;99.90;;;;;;4994972;28;20157;-77
2022/01/26 01:18:25;;;;;;;81.93;38.97;;;3.10;99.90;;;;;;5013361;28;20038;-77
2022/01/26 01:29:44;;;;;;;82.28;38.78;;;3.00;99.90;;;;;;5011066;28;20142;-76
2022/01/26 01:31:51;;;;;;;79.95;37.10;;;3.00;99.90;;;;;;4971461;28;20508;-77
2022/01/26 01:34:19;;;;;;;87.60;39.45;;;3.00;99.90;;;;;;4998767;28;20375;-77
2022/01/26 01:36:49;;;;;;;90.25;40.35;;;3.00;99.90;;;;;;4998722;28;20045;-77
2022/01/26 01:39:16;;;;;;;80.22;38.80;;;3.00;99.90;;;;;;4994240;28;20042;-76
2022/01/26 01:41:44;;;;;;;83.40;38.78;;;3.00;99.90;;;;;;4995459;28;20066;-77
2022/01/26 01:44:11;;;;;;;85.72;40.40;;;3.00;99.90;;;;;;4981806;28;20060;-77
2022/01/26 01:46:38;;;;;;;82.90;38.60;;;3.00;99.90;;;;;;5013100;28;20050;-76
2022/01/26 01:49:05;;;;;;;85.15;38.05;;;3.00;99.90;;;;;;5012411;28;20057;-77
2022/01/26 01:51:35;;;;;;;91.65;40.67;;;3.10;99.90;;;;;;4978568;28;20046;-77
2022/01/26 01:54:02;;;;;;;82.32;37.95;;;2.90;99.90;;;;;;5013556;28;20053;-77
2022/01/26 01:56:28;;;;;;;79.93;37.47;;;3.00;99.90;;;;;;5014809;28;20053;-76
2022/01/26 01:58:57;;;;;;;80.35;37.08;;;3.00;99.90;;;;;;4988437;28;20450;-77
2022/01/26 02:01:23;;;;;;;83.80;37.30;;;3.00;99.90;;;;;;5010503;28;20088;-77
2022/01/26 02:03:48;;;;;;;76.30;37.42;;;3.00;99.90;;;;;;4995861;28;20476;-76
2022/01/26 02:06:14;;;;;;;80.25;37.33;;;3.00;99.90;;;;;;4984545;28;20050;-77
2022/01/26 02:08:41;;;;;;;89.50;38.88;;;3.00;99.90;;;;;;4981426;28;20429;-76
2022/01/26 02:11:10;;;;;;;81.43;36.85;;;3.00;99.90;;;;;;4984241;28;20057;-77
2022/01/26 02:13:45;;;;;;;88.93;39.10;;;3.00;99.90;;;;;;4983358;28;20038;-77
2022/01/26 02:16:28;;;;;;;83.30;35.28;;;3.00;99.90;;;;;;4975063;28;20068;-77
2022/01/26 02:19:19;;;;;;;81.20;38.10;;;3.00;99.90;;;;;;4979263;28;20507;-77
2022/01/26 02:57:26;;;;;;;86.30;38.03;;;2.80;99.90;;;;;;4975928;28;20434;-77
2022/01/26 03:04:56;;;;;;;87.10;37.97;;;2.80;99.90;;;;;;4995887;28;20047;-77
2022/01/26 03:10:02;;;;;;;88.65;37.75;;;2.80;99.90;;;;;;4978360;28;20398;-77
2022/01/26 03:12:40;;;;;;;89.13;37.22;;;2.70;99.90;;;;;;4982044;28;20114;-76
2022/01/26 03:15:15;;;;;;;96.18;39.85;;;2.70;99.90;;;;;;5008597;28;20508;-76
2022/01/26 03:20:25;;;;;;;97.57;40.40;;;2.80;99.90;;;;;;5001703;28;20100;-77
2022/01/26 03:36:45;;;;;;;97.32;39.65;;;2.80;99.90;;;;;;4979089;28;20390;-76
2022/01/26 03:39:14;;;;;;;97.03;39.88;;;2.70;99.90;;;;;;4998241;28;20034;-76
2022/01/26 03:41:53;;;;;;;93.50;39.97;;;2.70;99.90;;;;;;4997100;28;20042;-76
2022/01/26 03:44:19;;;;;;;94.85;38.45;;;2.70;99.90;;;;;;4976336;28;20046;-76
2022/01/26 03:46:46;;;;;;;88.03;37.63;;;2.70;99.90;;;;;;5012249;28;20046;-76
2022/01/26 03:49:12;;;;;;;96.65;40.35;;;2.80;99.90;;;;;;4999412;28;20126;-76
2022/01/26 03:51:40;;;;;;;97.70;39.65;;;2.70;99.90;;;;;;4996755;28;20037;-76
2022/01/26 03:54:06;;;;;;;93.05;39.05;;;2.70;99.90;;;;;;4993083;28;20113;-77
2022/01/26 03:56:33;;;;;;;83.55;36.72;;;2.70;99.90;;;;;;5009717;28;20053;-76
2022/01/26 03:58:59;;;;;;;89.05;36.92;;;2.70;99.90;;;;;;4998727;28;20049;-76
2022/01/26 04:01:24;;;;;;;90.82;36.33;;;2.80;99.90;;;;;;4979107;28;20038;-77
2022/01/26 04:03:51;;;;;;;87.07;36.10;;;2.70;99.90;;;;;;5015847;28;20054;-76
2022/01/26 04:06:17;;;;;;;93.20;39.38;;;2.80;99.90;;;;;;5014717;28;20731;-76
2022/01/26 04:08:44;;;;;;;89.90;36.88;;;2.80;99.90;;;;;;5001129;28;20038;-76
2022/01/26 04:11:47;;;;;;;85.35;35.78;;;2.70;99.90;;;;;;4996586;28;20046;-75
2022/01/26 04:14:07;;;;;;;85.10;36.63;;;2.70;99.90;;;;;;5011446;28;20068;-76
2022/01/26 04:16:33;;;;;;;83.68;36.15;;;2.70;99.90;;;;;;5010931;28;20060;-76
2022/01/26 04:18:59;;;;;;;82.25;36.33;;;2.80;99.90;;;;;;4999531;28;20038;-76
2022/01/26 04:21:38;;;;;;;81.25;35.47;;;2.70;99.90;;;;;;4980849;28;20046;-76
2022/01/26 04:24:15;;;;;;;74.55;34.05;;;2.70;99.90;;;;;;5007659;28;20483;-76
2022/01/26 04:29:31;;;;;;;81.43;35.75;;;2.70;99.90;;;;;;4982887;28;20042;-76
2022/01/26 04:31:58;;;;;;;81.07;35.42;;;2.70;99.90;;;;;;5011291;28;20046;-77
2022/01/26 04:34:25;;;;;;;89.75;36.95;;;2.70;99.90;;;;;;5010672;28;20051;-76
2022/01/26 04:39:22;;;;;;;77.75;35.30;;;2.70;99.90;;;;;;4985855;28;20485;-76
2022/01/26 04:42:14;;;;;;;77.53;33.28;;;2.70;99.90;;;;;;4983956;28;20042;-76
2022/01/26 04:44:41;;;;;;;77.43;34.50;;;2.70;99.90;;;;;;4999120;28;20049;-76
2022/01/26 04:47:06;;;;;;;74.18;33.78;;;2.60;99.90;;;;;;5013253;28;20061;-76
2022/01/26 04:49:34;;;;;;;77.20;33.08;;;2.70;99.90;;;;;;4988698;28;20042;-76
2022/01/26 04:52:00;;;;;;;82.35;35.67;;;2.60;99.90;;;;;;4997265;28;20534;-77
2022/01/26 04:54:26;;;;;;;81.97;34.28;;;2.70;99.90;;;;;;5000783;28;20556;-76
2022/01/26 04:56:51;;;;;;;77.07;32.40;;;2.60;99.90;;;;;;5000383;28;20038;-76
2022/01/26 04:59:17;;;;;;;81.20;34.42;;;2.60;99.90;;;;;;4997701;28;20048;-77
2022/01/26 05:01:46;;;;;;;78.65;33.58;;;2.70;99.90;;;;;;5010637;28;20053;-78
2022/01/26 05:04:11;;;;;;;74.00;31.65;;;2.60;99.90;;;;;;4996674;28;20495;-79
2022/01/26 05:06:37;;;;;;;74.50;33.28;;;2.60;99.90;;;;;;5015334;28;20133;-79
2022/01/26 05:09:03;;;;;;;74.75;31.85;;;2.60;99.90;;;;;;5000356;28;20116;-79
2022/01/26 05:11:38;;;;;;;71.03;31.45;;;3.40;99.90;;;;;;4981900;28;20081;-78
2022/01/26 05:14:05;;;;;;;74.90;30.83;;;2.60;99.90;;;;;;5001926;28;20452;-79
2022/01/26 05:16:31;;;;;;;85.38;32.83;;;2.60;99.90;;;;;;5010968;28;20041;-79
2022/01/26 05:18:58;;;;;;;70.63;30.00;;;2.70;99.90;;;;;;4995513;28;20062;-79
2022/01/26 05:21:25;;;;;;;73.28;32.45;;;2.70;99.90;;;;;;4982899;28;20034;-79
2022/01/26 05:23:51;;;;;;;71.10;30.85;;;2.60;99.90;;;;;;4980812;28;20081;-79
2022/01/26 05:26:16;;;;;;;69.90;30.95;;;2.60;99.90;;;;;;4992962;28;20078;-79
2022/01/26 05:28:42;;;;;;;76.57;30.40;;;2.70;99.90;;;;;;4978799;28;20405;-79
2022/01/26 05:31:08;;;;;;;68.93;30.65;;;2.70;99.90;;;;;;4996684;28;20038;-80
2022/01/26 05:33:34;;;;;;;70.47;31.10;;;2.70;99.90;;;;;;4984340;28;20065;-79
2022/01/26 05:36:00;;;;;;;70.85;29.45;;;2.70;99.90;;;;;;4984519;28;20041;-79
2022/01/26 05:38:25;;;;;;;63.97;28.20;;;2.70;99.90;;;;;;5015896;28;20042;-79
2022/01/26 05:40:51;;;;;;;71.32;30.52;;;2.70;99.90;;;;;;5010340;28;20049;-79
2022/01/26 05:43:17;;;;;;;67.15;28.83;;;2.70;99.90;;;;;;4980809;28;20046;-79
2022/01/26 05:45:48;;;;;;;66.15;29.45;;;2.70;99.90;;;;;;4996819;28;20046;-79
2022/01/26 05:48:14;;;;;;;62.38;27.23;;;2.70;99.90;;;;;;5012886;28;20145;-79
2022/01/26 05:50:49;;;;;;;66.60;28.67;;;2.70;99.90;;;;;;5015366;28;20057;-79
2022/01/26 05:53:16;;;;;;;62.20;27.90;;;2.60;99.90;;;;;;5013851;28;20039;-79
2022/01/26 05:55:42;;;;;;;72.13;30.90;;;2.60;99.90;;;;;;4988254;28;20046;-79
2022/01/26 05:58:07;;;;;;;65.18;28.00;;;2.70;99.90;;;;;;4995689;28;20054;-79
2022/01/26 06:00:33;;;;;;;61.40;28.73;;;2.60;99.90;;;;;;4983802;28;20052;-79
2022/01/26 06:02:59;;;;;;;65.78;28.00;;;2.60;99.90;;;;;;5014639;28;20137;-79
2022/01/26 06:05:25;;;;;;;63.65;28.58;;;2.60;99.90;;;;;;4995394;28;20451;-79
2022/01/26 06:07:50;;;;;;;64.40;28.65;;;3.30;99.90;;;;;;5006590;28;20054;-79
2022/01/26 06:10:16;;;;;;;65.75;28.67;;;2.60;99.90;;;;;;4991861;28;20408;-79
2022/01/26 06:12:42;;;;;;;60.95;26.88;;;2.60;99.90;;;;;;4977105;28;20050;-79
2022/01/26 06:15:08;;;;;;;62.47;28.50;;;2.60;99.90;;;;;;4997241;28;20107;-78
2022/01/26 06:17:34;;;;;;;68.82;28.70;;;2.60;99.90;;;;;;4998843;28;20050;-79
2022/01/26 06:20:00;;;;;;;60.17;27.13;;;2.70;99.90;;;;;;4982697;28;20050;-79
2022/01/26 06:22:26;;;;;;;61.97;28.08;;;2.70;99.90;;;;;;5016364;28;20081;-79
2022/01/26 06:24:52;;;;;;;57.95;26.30;;;2.60;99.90;;;;;;4998894;28;20058;-79
2022/01/26 06:27:18;;;;;;;64.35;27.70;;;2.70;99.90;;;;;;4982952;28;20061;-78
2022/01/26 06:29:44;;;;;;;62.33;28.02;;;2.60;99.90;;;;;;4999821;28;20413;-79
2022/01/26 06:32:10;;;;;;;62.63;26.67;;;2.60;99.90;;;;;;4994398;28;20493;-79
2022/01/26 06:34:39;;;;;;;59.35;27.33;;;2.60;99.90;;;;;;4981947;28;20046;-79
2022/01/26 06:37:06;;;;;;;59.15;26.42;;;2.60;99.90;;;;;;5000973;28;20513;-79
2022/01/26 06:39:31;;;;;;;58.47;25.98;;;2.60;99.90;;;;;;4975883;28;20039;-79
2022/01/26 06:41:57;;;;;;;60.72;27.67;;;2.60;99.90;;;;;;4978578;28;20391;-79
2022/01/26 06:44:36;;;;;;;60.45;27.40;;;2.60;99.90;;;;;;4981419;28;20126;-79
2022/01/26 06:49:37;;;;;;;53.30;24.92;;;2.60;99.90;;;;;;4982008;28;20087;-79
2022/01/26 06:52:02;;;;;;;54.45;24.48;;;2.70;99.90;;;;;;5013374;28;20053;-79
2022/01/26 06:54:28;;;;;;;55.13;24.95;;;2.60;99.90;;;;;;4997602;28;20481;-79
2022/01/26 06:56:54;;;;;;;52.92;24.98;;;2.60;99.90;;;;;;4993602;28;20073;-79
2022/01/26 06:59:23;;;;;;;55.38;25.48;;;2.70;99.90;;;;;;4977154;28;20133;-79
2022/01/26 07:01:49;;;;;;;53.67;25.70;;;2.70;99.90;;;;;;4999538;28;20048;-79
2022/01/26 07:04:15;;;;;;;60.00;28.33;;;2.70;99.90;;;;;;4977371;28;20069;-79
2022/01/26 07:06:40;;;;;;;57.92;28.73;;;3.00;99.90;;;;;;4997833;28;20521;-79
2022/01/26 07:09:06;;;;;;;55.67;25.60;;;2.70;99.90;;;;;;4998805;28;20042;-78
2022/01/26 07:11:32;;;;;;;56.42;27.85;;;2.70;99.90;;;;;;4977429;28;20053;-79
2022/01/26 07:14:00;;;;;;;62.47;28.55;;;2.70;99.90;;;;;;4971321;28;20048;-79
2022/01/26 07:21:54;;;;;;;64.75;29.08;;;2.70;99.90;;;;;;4974955;28;20042;-79
2022/01/26 07:24:20;;;;;;;63.75;29.13;;;2.70;99.90;;;;;;5001581;28;20543;-79
2022/01/26 07:26:49;;;;;;;68.03;31.27;;;2.70;99.90;;;;;;4973700;28;20039;-79
2022/01/26 07:29:21;;;;;;;67.00;31.73;;;2.80;99.90;;;;;;4998890;28;20038;-79
2022/01/26 07:31:47;;;;;;;68.80;31.98;;;2.70;99.90;;;;;;4973913;28;20196;-79
2022/01/26 07:34:15;;;;;;;68.90;32.63;;;2.70;99.90;;;;;;4992340;28;20049;-79
2022/01/26 07:36:42;;;;;;;74.20;33.03;;;2.80;99.90;;;;;;4987834;28;20072;-76
2022/01/26 07:39:13;;;;;;;67.25;32.92;;;2.80;99.90;;;;;;4989674;28;20042;-76
2022/01/26 07:41:39;;;;;;;65.95;31.42;;;2.80;99.90;;;;;;4975207;28;20050;-75
2022/01/26 07:44:05;;;;;;;70.20;34.08;;;2.80;99.90;;;;;;4975229;28;20035;-76
2022/01/26 07:46:31;;;;;;;70.93;35.65;;;2.80;99.90;;;;;;4976175;28;20042;-76
2022/01/26 07:48:57;;;;;;;75.90;35.90;;;2.80;99.90;;;;;;4991097;28;20090;-76
2022/01/26 07:51:23;;;;;;;77.40;36.05;;;2.80;99.90;;;;;;4990840;28;20058;-76
2022/01/26 07:53:49;;;;;;;81.00;39.08;;;2.80;99.90;;;;;;4974406;28;20083;-76
2022/01/26 07:56:15;;;;;;;76.95;38.08;;;2.80;99.90;;;;;;4994379;28;20034;-76
2022/01/26 07:58:42;;;;;;;85.50;39.88;;;2.80;99.90;;;;;;4993181;28;20049;-75
2022/01/26 08:01:07;;;;;;;81.75;40.45;;;2.80;99.90;;;;;;4973083;28;20436;-76
2022/01/26 08:03:33;;;;;;;88.22;42.10;;;2.80;99.90;;;;;;4994338;28;20033;-75
2022/01/26 08:06:06;;;;;;;84.90;43.35;;;2.90;99.90;;;;;;4992803;28;20045;-76
2022/01/26 08:08:32;;;;;;;88.78;42.75;;;2.90;99.90;;;;;;5008662;28;20037;-76
2022/01/26 08:10:58;;;;;;;91.80;43.42;;;2.90;99.90;;;;;;5002095;28;20045;-76
2022/01/26 08:13:24;;;;;;;91.38;45.13;;;2.90;99.90;;;;;;5010021;28;20497;-76
2022/01/26 08:15:56;;;;;;;91.80;45.58;;;2.90;99.90;;;;;;4977982;28;20039;-75
2022/01/26 08:18:24;;;;;;;93.75;46.97;;;2.90;99.90;;;;;;4994475;28;20100;-76
2022/01/26 08:20:51;;;;;;;97.05;48.58;;;2.90;99.90;;;;;;4994238;28;20038;-76
2022/01/26 08:23:19;;;;;;;101.32;49.03;;;2.90;99.90;;;;;;4984793;28;20469;-75
2022/01/26 08:25:45;;;;;;;97.50;48.63;;;3.00;99.90;;;;;;4994438;28;20070;-76
2022/01/26 08:28:20;;;;;;;102.18;50.10;;;3.00;99.90;;;;;;4981498;28;20076;-76
2022/01/26 08:30:45;;;;;;;105.75;51.58;;;3.00;99.90;;;;;;4995009;28;20056;-76
2022/01/26 08:33:11;;;;;;;100.43;49.70;;;3.00;99.90;;;;;;4981413;28;20050;-76
2022/01/26 08:35:37;;;;;;;107.82;53.17;;;3.00;99.90;;;;;;4991977;28;20686;-76
2022/01/26 08:38:03;;;;;;;108.20;53.88;;;3.10;99.90;;;;;;4972709;28;20046;-76
2022/01/26 08:40:30;;;;;;;111.82;53.45;;;3.00;99.90;;;;;;4998584;28;20145;-76
2022/01/26 08:42:56;;;;;;;108.20;54.58;;;3.10;99.90;;;;;;4999118;28;20038;-76
2022/01/26 08:45:22;;;;;;;114.43;55.25;;;3.10;99.90;;;;;;5007699;28;20096;-76
2022/01/26 08:47:49;;;;;;;120.20;55.65;;;3.10;99.90;;;;;;4993262;28;20038;-76
2022/01/26 08:50:16;;;;;;;118.18;55.72;;;3.20;99.90;;;;;;4991640;28;20585;-76
2022/01/26 08:52:42;;;;;;;111.28;55.75;;;3.20;99.90;;;;;;4994173;28;20497;-76
2022/01/26 08:55:08;;;;;;;120.18;58.88;;;3.20;99.90;;;;;;5008262;28;20035;-76
2022/01/26 08:57:33;;;;;;;120.72;59.00;;;3.20;99.90;;;;;;4998725;28;20069;-76
2022/01/26 09:00:00;;;;;;;114.63;57.20;;;3.20;99.90;;;;;;4991470;28;20461;-76
2022/01/26 09:02:27;;;;;;;116.07;58.00;;;3.30;99.90;;;;;;4997179;28;20046;-76
2022/01/26 09:04:53;;;;;;;122.97;59.72;;;3.20;99.90;;;;;;4976503;28;20128;-76
2022/01/26 09:07:20;;;;;;;120.55;59.75;;;3.30;99.90;;;;;;4990068;28;20121;-76
2022/01/26 09:09:46;;;;;;;120.50;60.85;;;3.30;99.90;;;;;;4994307;28;20401;-76
2022/01/26 09:12:19;;;;;;;117.68;58.75;;;3.30;99.90;;;;;;4976702;28;20046;-76
2022/01/26 09:14:46;;;;;;;114.07;57.65;;;3.30;99.90;;;;;;4991576;28;20042;-77
2022/01/26 09:17:13;;;;;;;120.50;60.08;;;3.30;99.90;;;;;;4993643;28;20485;-76
2022/01/26 09:19:41;;;;;;;124.88;58.95;;;3.40;99.90;;;;;;4973133;28;20061;-77
2022/01/26 09:22:10;;;;;;;116.22;57.63;;;3.40;99.90;;;;;;4993858;28;20038;-76
2022/01/26 09:24:39;;;;;;;123.88;58.75;;;3.40;99.90;;;;;;4976197;28;20057;-76
2022/01/26 09:27:06;;;;;;;120.38;57.40;;;3.40;99.90;;;;;;4995171;28;20084;-76
2022/01/26 09:29:34;;;;;;;119.57;59.45;;;3.50;99.90;;;;;;5009049;28;20057;-77
2022/01/26 09:32:00;;;;;;;131.70;60.38;;;3.40;99.90;;;;;;4998378;28;20048;-76
2022/01/26 09:34:29;;;;;;;123.90;59.38;;;3.50;99.90;;;;;;5001097;28;20075;-76
2022/01/26 09:36:57;;;;;;;122.20;59.67;;;3.50;99.90;;;;;;5009810;28;20042;-76
2022/01/26 09:39:23;;;;;;;115.70;59.17;;;3.60;99.90;;;;;;4986365;28;20045;-76
2022/01/26 09:41:50;;;;;;;115.15;57.40;;;3.50;99.90;;;;;;5010661;28;20038;-76
2022/01/26 09:44:17;;;;;;;113.47;56.45;;;3.60;99.90;;;;;;4986103;28;20090;-76
2022/01/26 09:46:44;;;;;;;113.68;56.13;;;3.60;99.90;;;;;;4976087;28;20037;-76
2022/01/26 09:49:10;;;;;;;114.03;57.72;;;3.70;99.90;;;;;;4995845;28;20637;-76
2022/01/26 09:51:40;;;;;;;108.50;55.97;;;3.70;99.90;;;;;;5009440;28;20659;-77
2022/01/26 09:54:13;;;;;;;100.30;53.40;;;3.70;99.90;;;;;;5006951;28;20165;-77
2022/01/26 09:56:39;;;;;;;105.47;50.85;;;3.70;99.90;;;;;;4993286;28;20515;-77
2022/01/26 09:59:08;;;;;;;101.43;52.63;;;3.70;99.90;;;;;;4993276;28;20038;-77
2022/01/26 10:01:48;;;;;;;91.30;49.90;;;3.70;99.90;;;;;;4992094;28;20038;-77
2022/01/26 10:04:46;;;;;;;99.65;52.65;;;3.80;99.90;;;;;;4988262;28;20512;-77
2022/01/26 10:07:25;;;;;;;94.82;49.47;;;3.80;99.90;;;;;;4997862;28;20109;-77
2022/01/26 10:15:43;;;;;;;91.90;50.63;;;3.90;99.90;;;;;;5002957;28;20054;-76
2022/01/26 10:18:15;;;;;;;103.72;51.08;;;3.90;99.90;;;;;;4975273;28;20089;-76
2022/01/26 10:21:01;;;;;;;87.60;49.20;;;3.90;99.90;;;;;;4989055;28;20580;-76
2022/01/26 10:23:30;;;;;;;94.63;50.08;;;4.00;99.90;;;;;;4999225;28;20077;-76
2022/01/26 10:26:09;;;;;;;93.07;49.90;;;4.00;99.90;;;;;;4983461;28;20050;-76
2022/01/26 10:28:45;;;;;;;99.00;52.53;;;3.90;99.90;;;;;;5007435;28;20039;-76
2022/01/26 10:31:25;;;;;;;98.82;51.95;;;4.00;99.90;;;;;;4989686;28;20034;-77
2022/01/26 10:33:58;;;;;;;92.43;50.08;;;4.00;99.90;;;;;;4992189;28;20134;-77
2022/01/26 10:36:25;;;;;;;90.50;48.58;;;4.10;99.90;;;;;;4989985;28;20173;-77
2022/01/26 10:39:07;;;;;;;97.65;48.47;;;4.10;99.90;;;;;;4991922;28;20565;-77
2022/01/26 10:41:38;;;;;;;92.88;48.30;;;4.10;99.90;;;;;;4991950;28;20517;-77
2022/01/26 10:44:05;;;;;;;86.85;46.05;;;4.10;99.90;;;;;;5008950;28;20578;-77
2022/01/26 10:46:34;;;;;;;86.55;47.58;;;4.10;99.90;;;;;;4995796;28;20046;-76
2022/01/26 10:49:31;;;;;;;90.68;48.95;;;4.20;99.90;;;;;;4994375;28;20042;-76
2022/01/26 10:52:03;;;;;;;82.90;46.00;;;4.10;99.90;;;;;;5010175;28;20065;-76
2022/01/26 10:54:37;;;;;;;79.63;45.80;;;4.10;99.90;;;;;;4997153;28;20455;-77
2022/01/26 10:57:08;;;;;;;84.22;44.78;;;4.20;99.90;;;;;;4992809;28;20038;-76
2022/01/26 10:59:40;;;;;;;78.50;43.42;;;4.20;99.90;;;;;;4977926;28;20045;-76
2022/01/26 11:02:07;;;;;;;80.90;44.00;;;4.20;99.90;;;;;;4971576;28;20034;-76
2022/01/26 11:04:35;;;;;;;77.97;42.70;;;4.20;99.90;;;;;;5010360;28;20037;-76
2022/01/26 11:07:02;;;;;;;77.32;42.88;;;4.20;99.90;;;;;;4991193;28;20073;-76
2022/01/26 11:09:31;;;;;;;83.68;45.45;;;4.30;99.90;;;;;;4994518;28;20046;-76
2022/01/26 11:12:08;;;;;;;84.57;44.83;;;4.30;99.90;;;;;;4992028;28;20038;-76
2022/01/26 11:14:49;;;;;;;77.38;42.67;;;4.30;99.90;;;;;;5006469;28;20136;-75
2022/01/26 11:17:34;;;;;;;81.10;41.90;;;4.30;99.90;;;;;;5006143;28;20125;-76
2022/01/26 11:20:13;;;;;;;78.07;43.72;;;4.20;99.90;;;;;;5005976;28;20038;-76
2022/01/26 11:22:51;;;;;;;78.82;43.00;;;4.30;99.90;;;;;;4975173;28;20050;-75
2022/01/26 11:25:19;;;;;;;80.90;44.85;;;4.30;99.90;;;;;;4978635;28;20042;-76
2022/01/26 11:27:45;;;;;;;75.90;42.88;;;4.40;99.90;;;;;;4980486;28;20068;-76
2022/01/26 11:30:18;;;;;;;80.07;42.72;;;4.30;99.90;;;;;;4996910;28;20050;-76
2022/01/26 11:32:51;;;;;;;77.07;43.70;;;4.40;99.90;;;;;;4995472;28;20532;-76
2022/01/26 11:35:17;;;;;;;84.20;43.00;;;4.40;99.90;;;;;;4975293;28;20073;-76
2022/01/26 11:37:48;;;;;;;78.28;43.03;;;4.40;99.90;;;;;;4995900;28;20406;-76
2022/01/26 11:46:08;;;;;;;73.68;41.60;;;4.40;99.90;;;;;;4997907;28;20053;-76
2022/01/26 11:48:34;;;;;;;84.95;43.13;;;4.40;99.90;;;;;;5014372;28;20038;-76
2022/01/26 11:51:02;;;;;;;81.25;41.08;;;4.40;99.90;;;;;;4998916;28;20038;-76
2022/01/26 11:53:29;;;;;;;76.25;39.70;;;4.50;99.90;;;;;;4997700;28;20050;-76
2022/01/26 11:56:03;;;;;;;74.55;40.78;;;4.50;99.90;;;;;;4986319;28;20042;-76
2022/01/26 11:58:33;;;;;;;75.72;42.30;;;4.50;99.90;;;;;;4994097;28;20041;-76
2022/01/26 12:03:55;;;;;;;77.15;40.72;;;4.50;99.90;;;;;;4996117;28;20109;-76
2022/01/26 12:06:35;;;;;;;78.10;41.63;;;4.50;99.90;;;;;;4996076;28;20395;-76
2022/01/26 12:09:03;;;;;;;76.97;40.05;;;4.50;99.90;;;;;;4998341;28;20054;-76
2022/01/26 12:11:29;;;;;;;71.53;40.50;;;4.60;99.90;;;;;;4996979;28;20519;-76
2022/01/26 12:14:06;;;;;;;81.13;44.50;;;4.50;99.90;;;;;;4990779;28;20049;-76
2022/01/26 12:16:36;;;;;;;90.07;48.95;;;4.60;99.90;;;;;;4988634;28;20046;-76
2022/01/26 12:38:50;;;;;;;91.22;47.60;;;4.30;99.90;;;;;;4994268;28;20060;-76
2022/01/26 12:43:53;;;;;;;89.28;44.42;;;4.30;99.90;;;;;;5005144;28;20488;-76
2022/01/26 12:50:01;;;;;;;83.25;42.20;;;4.40;99.90;;;;;;4998745;28;20097;-78
2022/01/26 12:52:28;;;;;;;78.28;40.20;;;4.40;99.90;;;;;;4999290;28;20516;-78
2022/01/26 12:54:54;;;;;;;80.38;40.33;;;4.40;99.90;;;;;;5001598;28;20046;-78
2022/01/26 12:57:19;;;;;;;77.18;40.10;;;4.40;99.90;;;;;;4986295;28;20493;-77
2022/01/26 12:59:45;;;;;;;73.05;40.17;;;4.40;99.90;;;;;;4996580;28;20038;-77
2022/01/26 13:02:11;;;;;;;82.53;41.35;;;4.40;99.90;;;;;;4983864;28;20124;-78
2022/01/26 13:04:37;;;;;;;71.28;37.97;;;4.50;99.90;;;;;;4993475;28;20081;-78
2022/01/26 13:07:03;;;;;;;72.65;40.63;;;4.40;99.90;;;;;;4999365;28;20037;-77
2022/01/26 13:09:37;;;;;;;69.97;39.03;;;4.40;99.90;;;;;;4998754;28;20049;-78
2022/01/26 13:12:04;;;;;;;74.50;38.33;;;4.40;99.90;;;;;;5006595;28;20098;-79
2022/01/26 13:14:51;;;;;;;80.85;40.95;;;4.40;99.90;;;;;;5002586;28;20077;-79
2022/01/26 13:17:33;;;;;;;75.88;40.08;;;4.40;99.90;;;;;;5026662;28;20077;-79
2022/01/26 13:39:17;;;;;;;75.07;37.17;;;4.50;99.90;;;;;;5014970;28;20136;-78
2022/01/26 13:49:39;;;;;;;77.05;35.45;;;4.50;99.90;;;;;;4977092;28;20066;-78
2022/01/26 13:52:33;;;;;;;68.85;36.03;;;4.60;99.90;;;;;;4976274;28;20054;-78
2022/01/26 13:55:19;;;;;;;66.15;35.50;;;4.60;99.90;;;;;;4992778;28;20516;-78
2022/01/26 14:00:18;;;;;;;66.38;35.53;;;4.60;99.90;;;;;;5012122;28;20053;-80
2022/01/26 14:02:44;;;;;;;66.28;34.50;;;4.60;99.90;;;;;;4992914;28;20050;-83
2022/01/26 14:05:10;;;;;;;64.93;35.97;;;4.60;99.90;;;;;;4996250;28;20030;-82
2022/01/26 14:07:36;;;;;;;68.90;36.88;;;5.20;99.90;;;;;;4996403;28;20038;-82
2022/01/26 14:10:03;;;;;;;73.85;36.38;;;4.70;99.90;;;;;;4997440;28;20039;-82
2022/01/26 14:12:34;;;;;;;71.78;36.05;;;4.70;99.90;;;;;;4995672;28;20033;-83
2022/01/26 14:15:00;;;;;;;70.95;36.95;;;4.70;99.90;;;;;;4997419;28;20050;-83
2022/01/26 14:17:36;;;;;;;63.33;35.65;;;4.70;99.90;;;;;;4991156;28;20046;-82
2022/01/26 14:20:51;;;;;;;64.63;33.80;;;4.70;99.90;;;;;;5010350;28;20124;-83
2022/01/26 14:25:42;;;;;;;62.47;35.13;;;4.80;99.90;;;;;;4994630;28;20049;-83
2022/01/26 14:28:10;;;;;;;72.38;35.83;;;4.80;99.90;;;;;;4992789;28;20034;-83
2022/01/26 14:33:45;;;;;;;69.10;35.60;;;4.80;99.90;;;;;;4993626;28;20156;-83
2022/01/26 15:22:57;;;;;;;54.10;33.90;;;5.10;99.90;;;;;;5009230;28;20048;-82
2022/01/26 15:30:34;;;;;;;61.97;34.13;;;5.10;99.90;;;;;;5007275;28;20046;-82
2022/01/26 15:41:15;;;;;;;60.25;34.80;;;5.20;99.90;;;;;;5007447;28;20525;-82
2022/01/26 16:06:06;;;;;;;65.45;34.95;;;5.10;99.90;;;;;;5008540;28;20050;-82
2022/01/26 16:17:12;;;;;;;59.53;34.53;;;5.00;99.90;;;;;;4981059;28;20050;-82
2022/01/26 16:28:03;;;;;;;63.47;35.67;;;5.00;99.90;;;;;;4979476;28;20680;-82
2022/01/26 16:38:21;;;;;;;64.13;34.28;;;4.90;99.90;;;;;;4995686;28;20782;-79
2022/01/26 17:24:19;;;;;;;64.70;35.88;;;5.10;99.90;;;;;;5008728;28;20042;-80
2022/01/26 17:28:07;;;;;;;65.03;33.33;;;5.10;99.90;;;;;;4998955;28;20158;-79
2022/01/26 18:13:12;;;;;;;45.90;28.95;;;5.40;99.90;;;;;;5012486;28;20118;-79
2022/01/26 18:15:49;;;;;;;51.78;29.10;;;5.40;99.90;;;;;;4984335;28;20064;-80
2022/01/26 18:50:33;;;;;;;41.67;24.40;;;5.50;99.90;;;;;;4990515;28;20392;-79
2022/01/26 18:52:59;;;;;;;40.90;26.30;;;5.60;99.90;;;;;;4991121;28;20054;-79
2022/01/26 18:55:24;;;;;;;40.53;25.25;;;5.60;99.90;;;;;;4978078;28;20174;-79
2022/01/26 18:57:50;;;;;;;47.70;25.42;;;5.60;99.90;;;;;;4960050;28;20129;-79
2022/01/26 19:00:17;;;;;;;45.38;24.35;;;5.60;99.90;;;;;;4976652;28;20030;-80
2022/01/26 19:02:43;;;;;;;42.50;25.33;;;5.60;99.90;;;;;;5007557;28;20057;-80
2022/01/26 19:05:11;;;;;;;45.42;25.05;;;5.70;99.90;;;;;;4980632;28;20504;-80
2022/01/26 19:07:37;;;;;;;36.95;23.35;;;5.60;99.90;;;;;;4993467;28;20121;-80
2022/01/26 19:10:04;;;;;;;39.92;23.08;;;5.70;99.90;;;;;;4975921;28;20174;-79
2022/01/26 19:12:33;;;;;;;36.85;22.58;;;5.60;99.90;;;;;;4997670;28;20364;-80
2022/01/26 19:15:03;;;;;;;37.45;23.40;;;5.70;99.90;;;;;;4997689;28;20042;-81
2022/01/26 19:17:38;;;;;;;39.42;23.52;;;5.70;99.90;;;;;;4985844;28;20053;-80
2022/01/26 19:20:20;;;;;;;36.00;23.00;;;5.70;99.90;;;;;;4965129;28;20057;-81
2022/01/26 19:25:33;;;;;;;39.58;22.83;;;5.70;99.90;;;;;;4999347;28;20046;-81
2022/01/26 19:28:09;;;;;;;40.20;22.30;;;5.70;99.90;;;;;;4977473;28;20054;-81
2022/01/26 19:39:57;;;;;;;37.15;22.60;;;5.70;99.90;;;;;;4997545;28;20053;-81
2022/01/26 19:44:08;;;;;;;42.88;23.88;;;5.70;99.90;;;;;;5005660;28;20050;-81
2022/01/26 19:52:03;;;;;;;46.75;27.45;;;5.70;99.90;;;;;;4995161;28;20050;-81